Saint Louis, Missouri
Traffic Map
Current Weather Conditions
Saint Louis, Missouri
Clear
Clear
22°
Feels Like: 22°
Wind Chill: 22° Ceiling: Unl
Heat Index: 22° Visibility: 9mi
Dew Point: 21° Wind: 3mph
Humidity: 93% Direction: 130° (SE)
Pressure: 29.92in Gusts: 0mph
Raw Report DataKCPS 010253Z 13003KT 9SM CLR 22/21 A2992 RMK AO2 SLP130 60000 T02170206 51019
Traffic Incident Summary
Active as of:
Severity:
Category:
InformationThere was an issue retrieving the traffic information for this location. Please try a different location or try again shortly.
Advertisements
Track Severe Weather on mobile